Terminal Aerodrome Forecast
Issued by NWS

Home | Current Version | Previous Version | Text Only | Print | Product List | Glossary On
Versions: 1 2 3 4 5 6 7 8 9 10 11 12 13 14 15 16 17
000
FTUS46 KSEW 112320
TAFBLI
TAF
KBLI 112320Z 1200/1224 00000KT P6SM SCT200
     FM120900 00000KT P6SM BKN080
     FM121000 00000KT P6SM VCFG BKN080
     FM121400 VRB04KT P6SM BKN045 OVC080=

USA.gov is the U.S. government's official web portal to all federal, state and local government web resources and services.